sensor_id;sensor_type;location;lat;lon;timestamp;P1;durP1;ratioP1;P2;durP2;ratioP2
29720;SDS011;23665;51.044;3.748;2022-11-04T00:01:58;7.93;;;2.23;;
29720;SDS011;23665;51.044;3.748;2022-11-04T00:04:26;11.77;;;2.83;;
29720;SDS011;23665;51.044;3.748;2022-11-04T00:06:52;5.67;;;3.33;;
29720;SDS011;23665;51.044;3.748;2022-11-04T00:09:23;5.90;;;2.73;;
29720;SDS011;23665;51.044;3.748;2022-11-04T00:11:52;6.53;;;2.80;;
29720;SDS011;23665;51.044;3.748;2022-11-04T00:14:36;7.50;;;2.40;;
29720;SDS011;23665;51.044;3.748;2022-11-04T00:17:02;9.43;;;2.30;;
29720;SDS011;23665;51.044;3.748;2022-11-04T00:19:53;7.80;;;2.90;;
29720;SDS011;23665;51.044;3.748;2022-11-04T00:22:38;4.10;;;2.13;;
29720;SDS011;23665;51.044;3.748;2022-11-04T00:25:24;6.97;;;2.20;;
29720;SDS011;23665;51.044;3.748;2022-11-04T00:28:11;8.67;;;3.27;;
29720;SDS011;23665;51.044;3.748;2022-11-04T00:31:00;6.60;;;3.03;;
29720;SDS011;23665;51.044;3.748;2022-11-04T00:33:50;6.40;;;3.53;;
29720;SDS011;23665;51.044;3.748;2022-11-04T00:36:25;7.63;;;3.20;;
29720;SDS011;23665;51.044;3.748;2022-11-04T00:38:51;11.00;;;4.10;;
29720;SDS011;23665;51.044;3.748;2022-11-04T00:41:17;8.63;;;4.10;;
29720;SDS011;23665;51.044;3.748;2022-11-04T00:44:01;7.17;;;3.07;;
29720;SDS011;23665;51.044;3.748;2022-11-04T00:46:29;6.47;;;3.20;;
29720;SDS011;23665;51.044;3.748;2022-11-04T00:48:56;6.07;;;2.90;;
29720;SDS011;23665;51.044;3.748;2022-11-04T00:51:22;8.27;;;2.83;;
29720;SDS011;23665;51.044;3.748;2022-11-04T00:53:49;7.40;;;3.17;;
29720;SDS011;23665;51.044;3.748;2022-11-04T00:56:15;7.27;;;2.93;;
29720;SDS011;23665;51.044;3.748;2022-11-04T00:58:41;9.13;;;2.70;;
29720;SDS011;23665;51.044;3.748;2022-11-04T01:01:09;8.63;;;2.83;;
29720;SDS011;23665;51.044;3.748;2022-11-04T01:03:36;5.07;;;2.43;;
29720;SDS011;23665;51.044;3.748;2022-11-04T01:06:03;5.87;;;2.53;;
29720;SDS011;23665;51.044;3.748;2022-11-04T01:08:28;8.33;;;2.70;;
29720;SDS011;23665;51.044;3.748;2022-11-04T01:10:54;12.83;;;3.40;;
29720;SDS011;23665;51.044;3.748;2022-11-04T01:13:20;7.50;;;2.33;;
29720;SDS011;23665;51.044;3.748;2022-11-04T01:15:45;10.77;;;3.07;;
29720;SDS011;23665;51.044;3.748;2022-11-04T01:18:11;10.30;;;2.47;;
29720;SDS011;23665;51.044;3.748;2022-11-04T01:20:37;12.57;;;2.40;;
29720;SDS011;23665;51.044;3.748;2022-11-04T01:23:03;11.07;;;2.10;;
29720;SDS011;23665;51.044;3.748;2022-11-04T01:25:29;6.57;;;2.03;;
29720;SDS011;23665;51.044;3.748;2022-11-04T01:27:54;8.93;;;2.37;;
29720;SDS011;23665;51.044;3.748;2022-11-04T01:30:20;8.40;;;2.20;;
29720;SDS011;23665;51.044;3.748;2022-11-04T01:32:46;8.07;;;2.30;;
29720;SDS011;23665;51.044;3.748;2022-11-04T01:35:12;5.20;;;2.60;;
29720;SDS011;23665;51.044;3.748;2022-11-04T01:37:37;5.33;;;1.83;;
29720;SDS011;23665;51.044;3.748;2022-11-04T01:40:03;6.90;;;1.70;;
29720;SDS011;23665;51.044;3.748;2022-11-04T01:42:29;8.53;;;1.90;;
29720;SDS011;23665;51.044;3.748;2022-11-04T01:44:56;7.30;;;1.80;;
29720;SDS011;23665;51.044;3.748;2022-11-04T01:47:31;5.03;;;1.70;;
29720;SDS011;23665;51.044;3.748;2022-11-04T01:50:07;8.70;;;1.77;;
29720;SDS011;23665;51.044;3.748;2022-11-04T01:52:40;6.37;;;1.50;;
29720;SDS011;23665;51.044;3.748;2022-11-04T01:55:13;9.53;;;1.70;;
29720;SDS011;23665;51.044;3.748;2022-11-04T01:57:44;4.13;;;1.20;;
29720;SDS011;23665;51.044;3.748;2022-11-04T02:00:13;11.23;;;2.27;;
29720;SDS011;23665;51.044;3.748;2022-11-04T02:02:44;9.20;;;2.10;;
29720;SDS011;23665;51.044;3.748;2022-11-04T02:05:17;9.90;;;1.93;;
29720;SDS011;23665;51.044;3.748;2022-11-04T02:07:45;6.80;;;2.30;;
29720;SDS011;23665;51.044;3.748;2022-11-04T02:10:15;5.23;;;1.63;;
29720;SDS011;23665;51.044;3.748;2022-11-04T02:12:42;9.83;;;2.23;;
29720;SDS011;23665;51.044;3.748;2022-11-04T02:15:15;8.43;;;2.07;;
29720;SDS011;23665;51.044;3.748;2022-11-04T02:26:47;8.80;;;2.80;;
29720;SDS011;23665;51.044;3.748;2022-11-04T02:35:02;8.97;;;2.43;;
29720;SDS011;23665;51.044;3.748;2022-11-04T02:38:01;19.00;;;2.33;;
29720;SDS011;23665;51.044;3.748;2022-11-04T02:40:56;7.40;;;2.10;;
29720;SDS011;23665;51.044;3.748;2022-11-04T02:46:16;7.23;;;1.77;;
29720;SDS011;23665;51.044;3.748;2022-11-04T02:48:46;11.07;;;2.20;;
29720;SDS011;23665;51.044;3.748;2022-11-04T02:51:27;10.87;;;2.10;;
29720;SDS011;23665;51.044;3.748;2022-11-04T02:54:34;7.33;;;1.70;;
29720;SDS011;23665;51.044;3.748;2022-11-04T02:56:55;10.27;;;1.93;;
29720;SDS011;23665;51.044;3.748;2022-11-04T02:59:32;8.23;;;2.43;;
29720;SDS011;23665;51.044;3.748;2022-11-04T03:02:03;7.90;;;2.00;;
29720;SDS011;23665;51.044;3.748;2022-11-04T03:04:33;12.87;;;2.33;;
29720;SDS011;23665;51.044;3.748;2022-11-04T03:07:05;6.43;;;1.77;;
29720;SDS011;23665;51.044;3.748;2022-11-04T03:09:34;8.20;;;2.13;;
29720;SDS011;23665;51.044;3.748;2022-11-04T03:12:06;12.10;;;2.50;;
29720;SDS011;23665;51.044;3.748;2022-11-04T03:14:39;7.40;;;2.50;;
29720;SDS011;23665;51.044;3.748;2022-11-04T03:17:19;11.33;;;2.00;;
29720;SDS011;23665;51.044;3.748;2022-11-04T03:19:55;7.77;;;1.80;;
29720;SDS011;23665;51.044;3.748;2022-11-04T03:22:24;8.27;;;1.80;;
29720;SDS011;23665;51.044;3.748;2022-11-04T03:24:52;10.20;;;2.60;;
29720;SDS011;23665;51.044;3.748;2022-11-04T03:27:37;12.23;;;2.27;;
29720;SDS011;23665;51.044;3.748;2022-11-04T03:30:22;11.87;;;2.53;;
29720;SDS011;23665;51.044;3.748;2022-11-04T03:35:23;6.63;;;2.00;;
29720;SDS011;23665;51.044;3.748;2022-11-04T03:37:50;7.90;;;2.20;;
29720;SDS011;23665;51.044;3.748;2022-11-04T03:40:16;8.20;;;2.07;;
29720;SDS011;23665;51.044;3.748;2022-11-04T03:42:49;9.20;;;2.17;;
29720;SDS011;23665;51.044;3.748;2022-11-04T03:45:21;9.80;;;2.47;;
29720;SDS011;23665;51.044;3.748;2022-11-04T03:47:47;13.33;;;1.80;;
29720;SDS011;23665;51.044;3.748;2022-11-04T03:50:30;6.07;;;1.60;;
29720;SDS011;23665;51.044;3.748;2022-11-04T03:52:59;7.43;;;1.70;;
29720;SDS011;23665;51.044;3.748;2022-11-04T03:58:07;8.10;;;1.77;;
29720;SDS011;23665;51.044;3.748;2022-11-04T04:00:47;8.30;;;1.97;;
29720;SDS011;23665;51.044;3.748;2022-11-04T04:03:24;9.30;;;1.87;;
29720;SDS011;23665;51.044;3.748;2022-11-04T04:06:01;10.20;;;2.60;;
29720;SDS011;23665;51.044;3.748;2022-11-04T04:08:52;14.60;;;2.77;;
29720;SDS011;23665;51.044;3.748;2022-11-04T04:11:22;7.07;;;1.90;;
29720;SDS011;23665;51.044;3.748;2022-11-04T04:19:53;10.87;;;1.80;;
29720;SDS011;23665;51.044;3.748;2022-11-04T04:22:24;9.90;;;2.10;;
29720;SDS011;23665;51.044;3.748;2022-11-04T04:24:53;8.50;;;2.10;;
29720;SDS011;23665;51.044;3.748;2022-11-04T04:27:42;11.13;;;2.40;;
29720;SDS011;23665;51.044;3.748;2022-11-04T04:30:13;10.53;;;2.50;;
29720;SDS011;23665;51.044;3.748;2022-11-04T04:32:45;4.83;;;2.03;;
29720;SDS011;23665;51.044;3.748;2022-11-04T04:35:26;15.13;;;2.67;;
29720;SDS011;23665;51.044;3.748;2022-11-04T04:38:13;11.10;;;2.93;;
29720;SDS011;23665;51.044;3.748;2022-11-04T04:41:04;10.60;;;2.60;;
29720;SDS011;23665;51.044;3.748;2022-11-04T04:43:56;6.80;;;2.53;;
29720;SDS011;23665;51.044;3.748;2022-11-04T04:46:41;11.73;;;2.37;;
29720;SDS011;23665;51.044;3.748;2022-11-04T04:49:09;9.20;;;2.27;;
29720;SDS011;23665;51.044;3.748;2022-11-04T04:51:37;6.97;;;2.03;;
29720;SDS011;23665;51.044;3.748;2022-11-04T04:54:05;12.10;;;2.60;;
29720;SDS011;23665;51.044;3.748;2022-11-04T04:56:31;11.33;;;2.60;;
29720;SDS011;23665;51.044;3.748;2022-11-04T04:58:57;10.97;;;2.23;;
29720;SDS011;23665;51.044;3.748;2022-11-04T05:01:23;11.57;;;2.50;;
29720;SDS011;23665;51.044;3.748;2022-11-04T05:03:48;15.97;;;2.53;;
29720;SDS011;23665;51.044;3.748;2022-11-04T05:06:14;7.97;;;2.40;;
29720;SDS011;23665;51.044;3.748;2022-11-04T05:08:40;9.60;;;2.90;;
29720;SDS011;23665;51.044;3.748;2022-11-04T05:11:06;11.63;;;2.80;;
29720;SDS011;23665;51.044;3.748;2022-11-04T05:13:31;6.20;;;2.30;;
29720;SDS011;23665;51.044;3.748;2022-11-04T05:16:07;15.53;;;2.70;;
29720;SDS011;23665;51.044;3.748;2022-11-04T05:18:34;11.13;;;2.50;;
29720;SDS011;23665;51.044;3.748;2022-11-04T05:21:04;10.40;;;2.73;;
29720;SDS011;23665;51.044;3.748;2022-11-04T05:23:31;13.67;;;2.67;;
29720;SDS011;23665;51.044;3.748;2022-11-04T05:25:58;10.70;;;2.57;;
29720;SDS011;23665;51.044;3.748;2022-11-04T05:28:24;11.70;;;3.10;;
29720;SDS011;23665;51.044;3.748;2022-11-04T05:30:50;12.63;;;2.73;;
29720;SDS011;23665;51.044;3.748;2022-11-04T05:33:16;11.30;;;2.93;;
29720;SDS011;23665;51.044;3.748;2022-11-04T05:35:41;9.00;;;2.70;;
29720;SDS011;23665;51.044;3.748;2022-11-04T05:38:07;9.07;;;2.37;;
29720;SDS011;23665;51.044;3.748;2022-11-04T05:40:33;9.63;;;2.90;;
29720;SDS011;23665;51.044;3.748;2022-11-04T05:42:59;6.83;;;2.37;;
29720;SDS011;23665;51.044;3.748;2022-11-04T05:45:25;7.73;;;2.47;;
29720;SDS011;23665;51.044;3.748;2022-11-04T05:48:01;8.10;;;2.33;;
29720;SDS011;23665;51.044;3.748;2022-11-04T05:50:29;11.93;;;2.90;;
29720;SDS011;23665;51.044;3.748;2022-11-04T05:52:57;15.23;;;3.63;;
29720;SDS011;23665;51.044;3.748;2022-11-04T05:55:23;9.87;;;2.50;;
29720;SDS011;23665;51.044;3.748;2022-11-04T05:57:50;6.30;;;2.37;;
29720;SDS011;23665;51.044;3.748;2022-11-04T06:00:16;11.73;;;2.67;;
29720;SDS011;23665;51.044;3.748;2022-11-04T06:02:42;10.50;;;3.10;;
29720;SDS011;23665;51.044;3.748;2022-11-04T06:05:08;8.63;;;2.40;;
29720;SDS011;23665;51.044;3.748;2022-11-04T06:07:34;11.83;;;3.00;;
29720;SDS011;23665;51.044;3.748;2022-11-04T06:09:59;9.67;;;3.53;;
29720;SDS011;23665;51.044;3.748;2022-11-04T06:12:25;11.93;;;3.60;;
29720;SDS011;23665;51.044;3.748;2022-11-04T06:14:51;11.53;;;3.30;;
29720;SDS011;23665;51.044;3.748;2022-11-04T06:17:18;10.23;;;4.23;;
29720;SDS011;23665;51.044;3.748;2022-11-04T06:19:45;8.03;;;3.07;;
29720;SDS011;23665;51.044;3.748;2022-11-04T06:22:11;9.80;;;3.47;;
29720;SDS011;23665;51.044;3.748;2022-11-04T06:24:42;11.83;;;3.47;;
29720;SDS011;23665;51.044;3.748;2022-11-04T06:27:08;12.03;;;3.53;;
29720;SDS011;23665;51.044;3.748;2022-11-04T06:29:35;8.47;;;3.43;;
29720;SDS011;23665;51.044;3.748;2022-11-04T06:32:13;10.53;;;3.57;;
29720;SDS011;23665;51.044;3.748;2022-11-04T06:34:40;16.00;;;3.83;;
29720;SDS011;23665;51.044;3.748;2022-11-04T06:37:06;14.27;;;4.67;;
29720;SDS011;23665;51.044;3.748;2022-11-04T06:39:32;12.53;;;3.63;;
29720;SDS011;23665;51.044;3.748;2022-11-04T06:41:58;12.73;;;3.60;;
29720;SDS011;23665;51.044;3.748;2022-11-04T06:44:24;12.17;;;3.43;;
29720;SDS011;23665;51.044;3.748;2022-11-04T06:46:50;13.20;;;3.80;;
29720;SDS011;23665;51.044;3.748;2022-11-04T06:49:17;10.57;;;3.50;;
29720;SDS011;23665;51.044;3.748;2022-11-04T06:51:44;11.63;;;3.20;;
29720;SDS011;23665;51.044;3.748;2022-11-04T06:54:11;8.43;;;3.13;;
29720;SDS011;23665;51.044;3.748;2022-11-04T06:56:38;10.90;;;2.97;;
29720;SDS011;23665;51.044;3.748;2022-11-04T06:59:04;16.30;;;3.60;;
29720;SDS011;23665;51.044;3.748;2022-11-04T07:01:33;10.67;;;3.20;;
29720;SDS011;23665;51.044;3.748;2022-11-04T07:04:00;11.30;;;2.87;;
29720;SDS011;23665;51.044;3.748;2022-11-04T07:06:29;10.17;;;3.03;;
29720;SDS011;23665;51.044;3.748;2022-11-04T07:08:56;8.97;;;2.90;;
29720;SDS011;23665;51.044;3.748;2022-11-04T07:11:23;14.80;;;4.10;;
29720;SDS011;23665;51.044;3.748;2022-11-04T07:13:50;16.10;;;4.00;;
29720;SDS011;23665;51.044;3.748;2022-11-04T07:16:16;15.13;;;4.33;;
29720;SDS011;23665;51.044;3.748;2022-11-04T07:18:42;12.43;;;4.80;;
29720;SDS011;23665;51.044;3.748;2022-11-04T07:21:09;10.57;;;4.30;;
29720;SDS011;23665;51.044;3.748;2022-11-04T07:23:36;11.83;;;3.43;;
29720;SDS011;23665;51.044;3.748;2022-11-04T07:26:03;10.83;;;3.50;;
29720;SDS011;23665;51.044;3.748;2022-11-04T07:28:31;16.27;;;4.63;;
29720;SDS011;23665;51.044;3.748;2022-11-04T07:30:57;9.67;;;4.40;;
29720;SDS011;23665;51.044;3.748;2022-11-04T07:33:24;13.23;;;4.00;;
29720;SDS011;23665;51.044;3.748;2022-11-04T07:35:51;10.73;;;4.03;;
29720;SDS011;23665;51.044;3.748;2022-11-04T07:38:18;15.50;;;3.93;;
29720;SDS011;23665;51.044;3.748;2022-11-04T07:40:44;10.77;;;4.03;;
29720;SDS011;23665;51.044;3.748;2022-11-04T07:43:10;17.70;;;4.53;;
29720;SDS011;23665;51.044;3.748;2022-11-04T07:45:35;13.60;;;4.20;;
29720;SDS011;23665;51.044;3.748;2022-11-04T07:48:02;7.27;;;3.87;;
29720;SDS011;23665;51.044;3.748;2022-11-04T07:50:27;8.57;;;3.40;;
29720;SDS011;23665;51.044;3.748;2022-11-04T07:52:53;11.33;;;3.70;;
29720;SDS011;23665;51.044;3.748;2022-11-04T07:55:19;10.20;;;3.17;;
29720;SDS011;23665;51.044;3.748;2022-11-04T07:57:45;11.13;;;3.67;;
29720;SDS011;23665;51.044;3.748;2022-11-04T08:00:12;12.80;;;3.50;;
29720;SDS011;23665;51.044;3.748;2022-11-04T08:02:39;11.30;;;3.27;;
29720;SDS011;23665;51.044;3.748;2022-11-04T08:05:06;10.73;;;3.90;;
29720;SDS011;23665;51.044;3.748;2022-11-04T08:07:32;10.90;;;4.37;;
29720;SDS011;23665;51.044;3.748;2022-11-04T08:09:58;14.10;;;4.30;;
29720;SDS011;23665;51.044;3.748;2022-11-04T08:12:24;10.50;;;4.07;;
29720;SDS011;23665;51.044;3.748;2022-11-04T08:14:51;11.63;;;3.40;;
29720;SDS011;23665;51.044;3.748;2022-11-04T08:17:17;12.77;;;4.20;;
29720;SDS011;23665;51.044;3.748;2022-11-04T08:19:43;19.80;;;4.87;;
29720;SDS011;23665;51.044;3.748;2022-11-04T08:22:09;15.33;;;4.37;;
29720;SDS011;23665;51.044;3.748;2022-11-04T08:24:34;10.90;;;4.33;;
29720;SDS011;23665;51.044;3.748;2022-11-04T08:27:01;13.07;;;4.57;;
29720;SDS011;23665;51.044;3.748;2022-11-04T08:29:28;10.77;;;4.57;;
29720;SDS011;23665;51.044;3.748;2022-11-04T08:31:54;16.57;;;4.57;;
29720;SDS011;23665;51.044;3.748;2022-11-04T08:34:20;14.37;;;5.37;;
29720;SDS011;23665;51.044;3.748;2022-11-04T08:36:46;14.73;;;5.17;;
29720;SDS011;23665;51.044;3.748;2022-11-04T08:39:12;13.63;;;4.50;;
29720;SDS011;23665;51.044;3.748;2022-11-04T08:41:39;9.10;;;4.57;;
29720;SDS011;23665;51.044;3.748;2022-11-04T08:44:07;15.83;;;5.67;;
29720;SDS011;23665;51.044;3.748;2022-11-04T08:46:35;21.77;;;6.10;;
29720;SDS011;23665;51.044;3.748;2022-11-04T08:49:03;14.37;;;5.40;;
29720;SDS011;23665;51.044;3.748;2022-11-04T08:51:29;20.00;;;5.60;;
29720;SDS011;23665;51.044;3.748;2022-11-04T08:53:57;12.70;;;5.70;;
29720;SDS011;23665;51.044;3.748;2022-11-04T08:56:26;17.13;;;5.77;;
29720;SDS011;23665;51.044;3.748;2022-11-04T08:58:54;15.43;;;4.77;;
29720;SDS011;23665;51.044;3.748;2022-11-04T09:01:22;12.63;;;5.27;;
29720;SDS011;23665;51.044;3.748;2022-11-04T09:03:49;13.67;;;5.07;;
29720;SDS011;23665;51.044;3.748;2022-11-04T09:06:23;16.60;;;5.23;;
29720;SDS011;23665;51.044;3.748;2022-11-04T09:08:52;22.97;;;6.83;;
29720;SDS011;23665;51.044;3.748;2022-11-04T09:11:21;11.93;;;5.53;;
29720;SDS011;23665;51.044;3.748;2022-11-04T09:13:47;14.47;;;4.83;;
29720;SDS011;23665;51.044;3.748;2022-11-04T09:16:13;14.97;;;5.03;;
29720;SDS011;23665;51.044;3.748;2022-11-04T09:18:40;12.67;;;4.90;;
29720;SDS011;23665;51.044;3.748;2022-11-04T09:21:07;14.50;;;4.87;;
29720;SDS011;23665;51.044;3.748;2022-11-04T09:23:37;15.07;;;5.53;;
29720;SDS011;23665;51.044;3.748;2022-11-04T09:26:21;13.63;;;5.77;;
29720;SDS011;23665;51.044;3.748;2022-11-04T09:28:54;10.93;;;5.03;;
29720;SDS011;23665;51.044;3.748;2022-11-04T09:31:22;15.50;;;6.33;;
29720;SDS011;23665;51.044;3.748;2022-11-04T09:33:48;19.47;;;6.37;;
29720;SDS011;23665;51.044;3.748;2022-11-04T09:36:23;15.00;;;5.60;;
29720;SDS011;23665;51.044;3.748;2022-11-04T09:38:50;14.30;;;5.53;;
29720;SDS011;23665;51.044;3.748;2022-11-04T09:44:07;14.77;;;4.43;;
29720;SDS011;23665;51.044;3.748;2022-11-04T09:46:48;11.93;;;3.90;;
29720;SDS011;23665;51.044;3.748;2022-11-04T09:49:17;10.70;;;4.27;;
29720;SDS011;23665;51.044;3.748;2022-11-04T09:51:45;13.33;;;4.50;;
29720;SDS011;23665;51.044;3.748;2022-11-04T09:56:54;9.97;;;4.50;;
29720;SDS011;23665;51.044;3.748;2022-11-04T09:59:27;10.17;;;4.90;;
29720;SDS011;23665;51.044;3.748;2022-11-04T10:10:03;12.87;;;5.30;;
29720;SDS011;23665;51.044;3.748;2022-11-04T10:20:55;15.13;;;7.10;;
29720;SDS011;23665;51.044;3.748;2022-11-04T10:23:43;11.93;;;7.53;;
29720;SDS011;23665;51.044;3.748;2022-11-04T10:29:25;11.83;;;6.60;;
29720;SDS011;23665;51.044;3.748;2022-11-04T10:32:06;14.47;;;7.13;;
29720;SDS011;23665;51.044;3.748;2022-11-04T10:34:43;10.90;;;7.13;;
29720;SDS011;23665;51.044;3.748;2022-11-04T10:37:23;14.47;;;7.23;;
29720;SDS011;23665;51.044;3.748;2022-11-04T10:39:50;14.83;;;7.90;;
29720;SDS011;23665;51.044;3.748;2022-11-04T10:42:24;12.90;;;7.43;;
29720;SDS011;23665;51.044;3.748;2022-11-04T10:44:50;17.37;;;8.87;;
29720;SDS011;23665;51.044;3.748;2022-11-04T10:52:13;19.43;;;8.73;;
29720;SDS011;23665;51.044;3.748;2022-11-04T10:54:41;14.50;;;8.33;;
29720;SDS011;23665;51.044;3.748;2022-11-04T10:57:09;18.27;;;7.70;;
29720;SDS011;23665;51.044;3.748;2022-11-04T11:05:20;14.00;;;6.20;;
29720;SDS011;23665;51.044;3.748;2022-11-04T11:07:50;10.13;;;5.70;;
29720;SDS011;23665;51.044;3.748;2022-11-04T11:13:05;11.90;;;6.20;;
29720;SDS011;23665;51.044;3.748;2022-11-04T11:15:48;13.30;;;6.33;;
29720;SDS011;23665;51.044;3.748;2022-11-04T11:18:27;13.40;;;5.80;;
29720;SDS011;23665;51.044;3.748;2022-11-04T11:21:15;10.97;;;5.47;;
29720;SDS011;23665;51.044;3.748;2022-11-04T11:24:06;8.47;;;4.70;;
29720;SDS011;23665;51.044;3.748;2022-11-04T11:26:41;13.57;;;5.33;;
29720;SDS011;23665;51.044;3.748;2022-11-04T11:29:14;10.60;;;5.03;;
29720;SDS011;23665;51.044;3.748;2022-11-04T11:31:49;10.83;;;5.17;;
29720;SDS011;23665;51.044;3.748;2022-11-04T11:37:26;36.40;;;23.73;;
29720;SDS011;23665;51.044;3.748;2022-11-04T11:39:57;29.80;;;20.17;;
29720;SDS011;23665;51.044;3.748;2022-11-04T11:42:23;11.40;;;4.80;;
29720;SDS011;23665;51.044;3.748;2022-11-04T11:44:53;10.23;;;5.33;;
29720;SDS011;23665;51.044;3.748;2022-11-04T11:50:05;11.73;;;5.60;;
29720;SDS011;23665;51.044;3.748;2022-11-04T11:52:41;7.30;;;4.70;;
29720;SDS011;23665;51.044;3.748;2022-11-04T11:55:13;10.43;;;5.57;;
29720;SDS011;23665;51.044;3.748;2022-11-04T11:58:00;11.97;;;4.73;;
29720;SDS011;23665;51.044;3.748;2022-11-04T12:00:50;7.03;;;3.77;;
29720;SDS011;23665;51.044;3.748;2022-11-04T12:03:44;9.40;;;4.30;;
29720;SDS011;23665;51.044;3.748;2022-11-04T12:22:35;9.13;;;3.60;;
29720;SDS011;23665;51.044;3.748;2022-11-04T12:30:24;10.23;;;3.90;;
29720;SDS011;23665;51.044;3.748;2022-11-04T12:36:02;8.77;;;3.40;;
29720;SDS011;23665;51.044;3.748;2022-11-04T12:43:59;7.33;;;3.50;;
29720;SDS011;23665;51.044;3.748;2022-11-04T12:49:47;7.93;;;3.43;;
29720;SDS011;23665;51.044;3.748;2022-11-04T12:55:51;7.07;;;2.53;;
29720;SDS011;23665;51.044;3.748;2022-11-04T12:58:19;2.57;;;1.53;;
29720;SDS011;23665;51.044;3.748;2022-11-04T13:01:00;4.17;;;1.80;;
29720;SDS011;23665;51.044;3.748;2022-11-04T13:06:37;4.13;;;1.33;;
29720;SDS011;23665;51.044;3.748;2022-11-04T13:12:02;4.47;;;1.07;;
29720;SDS011;23665;51.044;3.748;2022-11-04T13:14:37;3.50;;;1.30;;
29720;SDS011;23665;51.044;3.748;2022-11-04T13:17:21;5.07;;;1.07;;
29720;SDS011;23665;51.044;3.748;2022-11-04T13:19:52;3.13;;;1.00;;
29720;SDS011;23665;51.044;3.748;2022-11-04T13:22:26;3.57;;;0.70;;
29720;SDS011;23665;51.044;3.748;2022-11-04T13:25:05;2.60;;;0.90;;
29720;SDS011;23665;51.044;3.748;2022-11-04T13:27:40;3.90;;;1.03;;
29720;SDS011;23665;51.044;3.748;2022-11-04T13:39:12;4.10;;;0.60;;
29720;SDS011;23665;51.044;3.748;2022-11-04T13:42:06;5.17;;;0.50;;
29720;SDS011;23665;51.044;3.748;2022-11-04T13:44:47;3.87;;;0.40;;
29720;SDS011;23665;51.044;3.748;2022-11-04T13:47:17;6.23;;;0.90;;
29720;SDS011;23665;51.044;3.748;2022-11-04T13:49:52;2.10;;;0.80;;
29720;SDS011;23665;51.044;3.748;2022-11-04T13:52:19;4.73;;;0.80;;
29720;SDS011;23665;51.044;3.748;2022-11-04T13:54:55;3.30;;;0.80;;
29720;SDS011;23665;51.044;3.748;2022-11-04T13:57:27;2.50;;;1.00;;
29720;SDS011;23665;51.044;3.748;2022-11-04T14:18:40;3.00;;;0.97;;
29720;SDS011;23665;51.044;3.748;2022-11-04T14:21:09;2.27;;;0.90;;
29720;SDS011;23665;51.044;3.748;2022-11-04T14:23:36;5.53;;;0.90;;
29720;SDS011;23665;51.044;3.748;2022-11-04T14:26:04;3.40;;;1.23;;
29720;SDS011;23665;51.044;3.748;2022-11-04T14:29:07;9.27;;;1.30;;
29720;SDS011;23665;51.044;3.748;2022-11-04T14:31:43;3.13;;;0.90;;
29720;SDS011;23665;51.044;3.748;2022-11-04T14:36:58;6.40;;;1.07;;
29720;SDS011;23665;51.044;3.748;2022-11-04T14:39:41;8.03;;;1.47;;
29720;SDS011;23665;51.044;3.748;2022-11-04T14:42:10;2.63;;;1.03;;
29720;SDS011;23665;51.044;3.748;2022-11-04T14:44:42;3.80;;;1.00;;
29720;SDS011;23665;51.044;3.748;2022-11-04T14:50:07;3.53;;;0.90;;
29720;SDS011;23665;51.044;3.748;2022-11-04T14:55:11;5.50;;;0.90;;
29720;SDS011;23665;51.044;3.748;2022-11-04T14:57:41;3.93;;;1.30;;
29720;SDS011;23665;51.044;3.748;2022-11-04T15:03:02;5.17;;;1.53;;
29720;SDS011;23665;51.044;3.748;2022-11-04T15:05:36;9.20;;;1.40;;
29720;SDS011;23665;51.044;3.748;2022-11-04T15:08:24;6.13;;;1.40;;
29720;SDS011;23665;51.044;3.748;2022-11-04T15:11:02;4.40;;;1.33;;
29720;SDS011;23665;51.044;3.748;2022-11-04T15:13:31;5.90;;;1.20;;
29720;SDS011;23665;51.044;3.748;2022-11-04T15:15:58;6.33;;;1.80;;
29720;SDS011;23665;51.044;3.748;2022-11-04T15:18:32;6.50;;;2.10;;
29720;SDS011;23665;51.044;3.748;2022-11-04T15:21:02;6.53;;;1.87;;
29720;SDS011;23665;51.044;3.748;2022-11-04T15:23:43;8.43;;;1.80;;
29720;SDS011;23665;51.044;3.748;2022-11-04T15:29:02;9.57;;;1.40;;
29720;SDS011;23665;51.044;3.748;2022-11-04T15:31:36;6.00;;;2.07;;
29720;SDS011;23665;51.044;3.748;2022-11-04T15:34:07;4.63;;;1.50;;
29720;SDS011;23665;51.044;3.748;2022-11-04T15:36:40;10.87;;;2.73;;
29720;SDS011;23665;51.044;3.748;2022-11-04T15:41:47;7.43;;;1.87;;
29720;SDS011;23665;51.044;3.748;2022-11-04T15:44:35;8.67;;;1.83;;
29720;SDS011;23665;51.044;3.748;2022-11-04T15:49:43;6.17;;;2.00;;
29720;SDS011;23665;51.044;3.748;2022-11-04T15:52:12;9.03;;;2.50;;
29720;SDS011;23665;51.044;3.748;2022-11-04T15:54:57;5.27;;;2.07;;
29720;SDS011;23665;51.044;3.748;2022-11-04T15:57:31;6.53;;;2.37;;
29720;SDS011;23665;51.044;3.748;2022-11-04T16:00:08;6.73;;;2.33;;
29720;SDS011;23665;51.044;3.748;2022-11-04T16:02:57;7.97;;;2.60;;
29720;SDS011;23665;51.044;3.748;2022-11-04T16:05:25;10.80;;;3.07;;
29720;SDS011;23665;51.044;3.748;2022-11-04T16:07:54;10.13;;;3.90;;
29720;SDS011;23665;51.044;3.748;2022-11-04T16:10:37;10.50;;;2.83;;
29720;SDS011;23665;51.044;3.748;2022-11-04T16:15:39;9.63;;;3.23;;
29720;SDS011;23665;51.044;3.748;2022-11-04T16:23:53;12.53;;;2.30;;
29720;SDS011;23665;51.044;3.748;2022-11-04T16:26:25;6.67;;;1.90;;
29720;SDS011;23665;51.044;3.748;2022-11-04T16:28:57;7.33;;;2.00;;
29720;SDS011;23665;51.044;3.748;2022-11-04T16:31:27;7.40;;;1.80;;
29720;SDS011;23665;51.044;3.748;2022-11-04T16:33:57;7.93;;;2.30;;
29720;SDS011;23665;51.044;3.748;2022-11-04T16:36:23;7.20;;;2.33;;
29720;SDS011;23665;51.044;3.748;2022-11-04T16:38:52;9.60;;;2.27;;
29720;SDS011;23665;51.044;3.748;2022-11-04T16:41:28;9.33;;;2.83;;
29720;SDS011;23665;51.044;3.748;2022-11-04T16:43:56;11.13;;;2.57;;
29720;SDS011;23665;51.044;3.748;2022-11-04T16:46:23;10.53;;;2.73;;
29720;SDS011;23665;51.044;3.748;2022-11-04T16:48:49;8.77;;;2.07;;
29720;SDS011;23665;51.044;3.748;2022-11-04T16:51:22;6.27;;;2.67;;
29720;SDS011;23665;51.044;3.748;2022-11-04T16:53:51;8.70;;;2.40;;
29720;SDS011;23665;51.044;3.748;2022-11-04T16:56:22;10.20;;;2.53;;
29720;SDS011;23665;51.044;3.748;2022-11-04T16:58:49;7.03;;;2.30;;
29720;SDS011;23665;51.044;3.748;2022-11-04T17:01:16;6.03;;;2.40;;
29720;SDS011;23665;51.044;3.748;2022-11-04T17:03:43;7.03;;;3.33;;
29720;SDS011;23665;51.044;3.748;2022-11-04T17:06:10;9.43;;;3.43;;
29720;SDS011;23665;51.044;3.748;2022-11-04T17:08:37;8.60;;;3.27;;
29720;SDS011;23665;51.044;3.748;2022-11-04T17:11:04;9.10;;;2.90;;
29720;SDS011;23665;51.044;3.748;2022-11-04T17:13:30;15.40;;;3.30;;
29720;SDS011;23665;51.044;3.748;2022-11-04T17:15:56;8.20;;;3.03;;
29720;SDS011;23665;51.044;3.748;2022-11-04T17:18:22;7.07;;;3.10;;
29720;SDS011;23665;51.044;3.748;2022-11-04T17:20:49;7.63;;;2.70;;
29720;SDS011;23665;51.044;3.748;2022-11-04T17:23:16;6.70;;;3.20;;
29720;SDS011;23665;51.044;3.748;2022-11-04T17:25:43;15.03;;;3.47;;
29720;SDS011;23665;51.044;3.748;2022-11-04T17:28:09;9.50;;;3.20;;
29720;SDS011;23665;51.044;3.748;2022-11-04T17:30:35;8.77;;;3.57;;
29720;SDS011;23665;51.044;3.748;2022-11-04T17:33:01;8.77;;;3.20;;
29720;SDS011;23665;51.044;3.748;2022-11-04T17:35:31;9.03;;;3.73;;
29720;SDS011;23665;51.044;3.748;2022-11-04T17:37:59;5.17;;;3.10;;
29720;SDS011;23665;51.044;3.748;2022-11-04T17:40:25;10.60;;;3.60;;
29720;SDS011;23665;51.044;3.748;2022-11-04T17:42:50;10.53;;;3.73;;
29720;SDS011;23665;51.044;3.748;2022-11-04T17:45:35;8.27;;;3.87;;
29720;SDS011;23665;51.044;3.748;2022-11-04T17:48:02;7.20;;;3.40;;
29720;SDS011;23665;51.044;3.748;2022-11-04T17:50:28;9.47;;;3.40;;
29720;SDS011;23665;51.044;3.748;2022-11-04T17:52:55;11.57;;;4.00;;
29720;SDS011;23665;51.044;3.748;2022-11-04T17:55:20;10.97;;;4.10;;